Prichard, Idaho
Current Conditions -  °F | °C
As of 10:53 AM on Thursday 30 Oct 2014 (Local Time) from KMLP Reporting Station
Moderate Fog Moderate Fog  
Wind Chill: 27°   Ceiling: 100
Heat Index: 35°   Visibility: 0mi
Dew Point: 35°   Wind: 10mph
Humidity: 100%   Direction: 160°SSE
Pressure: 30.17"   Gusts: NA
Location:  47.1697°N, 115.775°W
Report Text: KMLP 301753Z AUTO 16009KT M1/4SM FG VV001 02/02 A3017 RMK AO2 SLP182 T00170017 10017 20011 58004
Loading
Personal Weather Stations






























Interactive Weather Map
Tropical Storm Tracking
New forecast layout! Learn more

10-Day Weather Forecast

Advertisements
Track Severe Weather on mobile